sensor_id;sensor_type;location;lat;lon;timestamp;P1;durP1;ratioP1;P2;durP2;ratioP2
10442;SDS011;5269;51.146;16.986;2022-07-22T00:02:15;10.63;;;7.50;;
10442;SDS011;5269;51.146;16.986;2022-07-22T00:04:42;8.20;;;7.00;;
10442;SDS011;5269;51.146;16.986;2022-07-22T00:07:09;8.73;;;7.40;;
10442;SDS011;5269;51.146;16.986;2022-07-22T00:09:39;8.23;;;7.40;;
10442;SDS011;5269;51.146;16.986;2022-07-22T00:12:06;8.35;;;7.43;;
10442;SDS011;5269;51.146;16.986;2022-07-22T00:14:33;10.00;;;7.45;;
10442;SDS011;5269;51.146;16.986;2022-07-22T00:17:01;8.63;;;7.75;;
10442;SDS011;5269;51.146;16.986;2022-07-22T00:19:29;7.93;;;7.22;;
10442;SDS011;5269;51.146;16.986;2022-07-22T00:21:56;8.00;;;7.20;;
10442;SDS011;5269;51.146;16.986;2022-07-22T00:24:23;9.57;;;7.72;;
10442;SDS011;5269;51.146;16.986;2022-07-22T00:26:50;9.23;;;7.50;;
10442;SDS011;5269;51.146;16.986;2022-07-22T00:29:17;7.97;;;7.25;;
10442;SDS011;5269;51.146;16.986;2022-07-22T00:31:44;7.63;;;7.03;;
10442;SDS011;5269;51.146;16.986;2022-07-22T00:34:11;9.75;;;7.45;;
10442;SDS011;5269;51.146;16.986;2022-07-22T00:36:39;8.50;;;7.68;;
10442;SDS011;5269;51.146;16.986;2022-07-22T00:39:06;8.05;;;7.13;;
10442;SDS011;5269;51.146;16.986;2022-07-22T00:41:33;8.85;;;7.60;;
10442;SDS011;5269;51.146;16.986;2022-07-22T00:44:01;8.02;;;7.22;;
10442;SDS011;5269;51.146;16.986;2022-07-22T00:46:29;8.38;;;7.68;;
10442;SDS011;5269;51.146;16.986;2022-07-22T00:48:57;9.38;;;8.32;;
10442;SDS011;5269;51.146;16.986;2022-07-22T00:51:25;9.75;;;7.80;;
10442;SDS011;5269;51.146;16.986;2022-07-22T00:53:55;9.95;;;8.80;;
10442;SDS011;5269;51.146;16.986;2022-07-22T00:56:23;9.27;;;8.45;;
10442;SDS011;5269;51.146;16.986;2022-07-22T00:58:52;17.65;;;8.60;;
10442;SDS011;5269;51.146;16.986;2022-07-22T01:01:20;9.20;;;7.88;;
10442;SDS011;5269;51.146;16.986;2022-07-22T01:03:47;9.82;;;8.32;;
10442;SDS011;5269;51.146;16.986;2022-07-22T01:06:14;8.68;;;7.88;;
10442;SDS011;5269;51.146;16.986;2022-07-22T01:08:41;8.43;;;7.35;;
10442;SDS011;5269;51.146;16.986;2022-07-22T01:11:11;8.77;;;7.90;;
10442;SDS011;5269;51.146;16.986;2022-07-22T01:13:39;8.25;;;7.55;;
10442;SDS011;5269;51.146;16.986;2022-07-22T01:16:07;8.82;;;7.50;;
10442;SDS011;5269;51.146;16.986;2022-07-22T01:18:35;8.73;;;7.50;;
10442;SDS011;5269;51.146;16.986;2022-07-22T01:21:04;8.80;;;7.90;;
10442;SDS011;5269;51.146;16.986;2022-07-22T01:23:31;8.77;;;7.40;;
10442;SDS011;5269;51.146;16.986;2022-07-22T01:25:59;8.23;;;7.53;;
10442;SDS011;5269;51.146;16.986;2022-07-22T01:28:26;8.68;;;7.78;;
10442;SDS011;5269;51.146;16.986;2022-07-22T01:30:53;9.45;;;7.88;;
10442;SDS011;5269;51.146;16.986;2022-07-22T01:33:21;8.98;;;8.07;;
10442;SDS011;5269;51.146;16.986;2022-07-22T01:35:49;9.35;;;8.02;;
10442;SDS011;5269;51.146;16.986;2022-07-22T01:38:18;8.77;;;7.88;;
10442;SDS011;5269;51.146;16.986;2022-07-22T01:40:45;8.55;;;7.82;;
10442;SDS011;5269;51.146;16.986;2022-07-22T01:43:13;9.60;;;7.93;;
10442;SDS011;5269;51.146;16.986;2022-07-22T01:45:42;8.68;;;7.88;;
10442;SDS011;5269;51.146;16.986;2022-07-22T01:48:10;10.52;;;7.90;;
10442;SDS011;5269;51.146;16.986;2022-07-22T01:50:37;10.88;;;8.20;;
10442;SDS011;5269;51.146;16.986;2022-07-22T01:53:05;9.10;;;8.23;;
10442;SDS011;5269;51.146;16.986;2022-07-22T01:55:34;8.63;;;7.72;;
10442;SDS011;5269;51.146;16.986;2022-07-22T01:58:01;9.43;;;8.50;;
10442;SDS011;5269;51.146;16.986;2022-07-22T02:00:29;10.38;;;8.38;;
10442;SDS011;5269;51.146;16.986;2022-07-22T02:02:56;9.50;;;8.23;;
10442;SDS011;5269;51.146;16.986;2022-07-22T02:05:23;9.80;;;8.80;;
10442;SDS011;5269;51.146;16.986;2022-07-22T02:07:50;9.18;;;8.27;;
10442;SDS011;5269;51.146;16.986;2022-07-22T02:10:18;9.48;;;8.57;;
10442;SDS011;5269;51.146;16.986;2022-07-22T02:12:46;8.73;;;7.80;;
10442;SDS011;5269;51.146;16.986;2022-07-22T02:15:13;8.95;;;8.15;;
10442;SDS011;5269;51.146;16.986;2022-07-22T02:17:40;10.95;;;8.68;;
10442;SDS011;5269;51.146;16.986;2022-07-22T02:20:07;9.98;;;8.98;;
10442;SDS011;5269;51.146;16.986;2022-07-22T02:22:35;9.88;;;8.60;;
10442;SDS011;5269;51.146;16.986;2022-07-22T02:25:02;9.80;;;8.82;;
10442;SDS011;5269;51.146;16.986;2022-07-22T02:27:29;10.13;;;9.13;;
10442;SDS011;5269;51.146;16.986;2022-07-22T02:29:58;9.38;;;8.50;;
10442;SDS011;5269;51.146;16.986;2022-07-22T02:32:25;9.40;;;8.57;;
10442;SDS011;5269;51.146;16.986;2022-07-22T02:34:52;9.32;;;8.43;;
10442;SDS011;5269;51.146;16.986;2022-07-22T02:37:19;9.52;;;8.73;;
10442;SDS011;5269;51.146;16.986;2022-07-22T02:39:46;9.63;;;8.63;;
10442;SDS011;5269;51.146;16.986;2022-07-22T02:42:13;11.00;;;9.07;;
10442;SDS011;5269;51.146;16.986;2022-07-22T02:44:40;9.38;;;8.48;;
10442;SDS011;5269;51.146;16.986;2022-07-22T02:47:08;10.35;;;9.05;;
10442;SDS011;5269;51.146;16.986;2022-07-22T02:49:35;12.13;;;9.25;;
10442;SDS011;5269;51.146;16.986;2022-07-22T02:52:04;12.30;;;9.50;;
10442;SDS011;5269;51.146;16.986;2022-07-22T02:54:31;12.73;;;9.68;;
10442;SDS011;5269;51.146;16.986;2022-07-22T02:56:58;13.35;;;9.77;;
10442;SDS011;5269;51.146;16.986;2022-07-22T02:59:25;16.83;;;9.35;;
10442;SDS011;5269;51.146;16.986;2022-07-22T03:01:52;14.25;;;9.63;;
10442;SDS011;5269;51.146;16.986;2022-07-22T03:04:20;10.52;;;9.43;;
10442;SDS011;5269;51.146;16.986;2022-07-22T03:06:47;14.32;;;9.30;;
10442;SDS011;5269;51.146;16.986;2022-07-22T03:09:14;11.98;;;9.85;;
10442;SDS011;5269;51.146;16.986;2022-07-22T03:11:41;21.20;;;12.10;;
10442;SDS011;5269;51.146;16.986;2022-07-22T03:14:08;17.98;;;11.95;;
10442;SDS011;5269;51.146;16.986;2022-07-22T03:16:36;19.23;;;11.73;;
10442;SDS011;5269;51.146;16.986;2022-07-22T03:19:03;16.15;;;11.95;;
10442;SDS011;5269;51.146;16.986;2022-07-22T03:21:31;18.10;;;11.05;;
10442;SDS011;5269;51.146;16.986;2022-07-22T03:23:58;14.57;;;11.82;;
10442;SDS011;5269;51.146;16.986;2022-07-22T03:26:25;13.55;;;12.07;;
10442;SDS011;5269;51.146;16.986;2022-07-22T03:28:52;13.45;;;11.75;;
10442;SDS011;5269;51.146;16.986;2022-07-22T03:31:19;13.65;;;12.07;;
10442;SDS011;5269;51.146;16.986;2022-07-22T03:33:46;13.52;;;11.88;;
10442;SDS011;5269;51.146;16.986;2022-07-22T03:36:13;16.85;;;12.43;;
10442;SDS011;5269;51.146;16.986;2022-07-22T03:38:41;17.73;;;12.77;;
10442;SDS011;5269;51.146;16.986;2022-07-22T03:41:08;18.33;;;13.27;;
10442;SDS011;5269;51.146;16.986;2022-07-22T03:43:35;14.35;;;12.70;;
10442;SDS011;5269;51.146;16.986;2022-07-22T03:46:02;17.85;;;12.45;;
10442;SDS011;5269;51.146;16.986;2022-07-22T03:48:30;14.07;;;12.07;;
10442;SDS011;5269;51.146;16.986;2022-07-22T03:50:57;17.20;;;12.70;;
10442;SDS011;5269;51.146;16.986;2022-07-22T03:53:24;18.60;;;13.40;;
10442;SDS011;5269;51.146;16.986;2022-07-22T03:55:52;13.60;;;11.95;;
10442;SDS011;5269;51.146;16.986;2022-07-22T03:58:19;13.30;;;11.98;;
10442;SDS011;5269;51.146;16.986;2022-07-22T04:00:46;15.52;;;12.57;;
10442;SDS011;5269;51.146;16.986;2022-07-22T04:03:13;14.70;;;12.40;;
10442;SDS011;5269;51.146;16.986;2022-07-22T04:05:40;14.70;;;12.88;;
10442;SDS011;5269;51.146;16.986;2022-07-22T04:08:07;13.45;;;12.15;;
10442;SDS011;5269;51.146;16.986;2022-07-22T04:10:34;13.43;;;12.02;;
10442;SDS011;5269;51.146;16.986;2022-07-22T04:13:02;16.73;;;12.65;;
10442;SDS011;5269;51.146;16.986;2022-07-22T04:15:29;13.07;;;11.73;;
10442;SDS011;5269;51.146;16.986;2022-07-22T04:17:56;16.13;;;12.32;;
10442;SDS011;5269;51.146;16.986;2022-07-22T04:20:23;14.77;;;12.30;;
10442;SDS011;5269;51.146;16.986;2022-07-22T04:22:50;15.25;;;12.60;;
10442;SDS011;5269;51.146;16.986;2022-07-22T04:25:17;16.50;;;12.40;;
10442;SDS011;5269;51.146;16.986;2022-07-22T04:27:44;14.77;;;12.63;;
10442;SDS011;5269;51.146;16.986;2022-07-22T04:30:12;13.48;;;11.88;;
10442;SDS011;5269;51.146;16.986;2022-07-22T04:32:40;13.70;;;12.40;;
10442;SDS011;5269;51.146;16.986;2022-07-22T04:35:07;14.82;;;13.18;;
10442;SDS011;5269;51.146;16.986;2022-07-22T04:37:34;16.77;;;13.05;;
10442;SDS011;5269;51.146;16.986;2022-07-22T04:40:01;15.55;;;13.35;;
10442;SDS011;5269;51.146;16.986;2022-07-22T04:42:28;15.10;;;13.32;;
10442;SDS011;5269;51.146;16.986;2022-07-22T04:44:57;16.92;;;13.82;;
10442;SDS011;5269;51.146;16.986;2022-07-22T04:47:25;14.85;;;13.38;;
10442;SDS011;5269;51.146;16.986;2022-07-22T04:49:52;15.10;;;13.60;;
10442;SDS011;5269;51.146;16.986;2022-07-22T04:52:19;15.05;;;13.20;;
10442;SDS011;5269;51.146;16.986;2022-07-22T04:54:46;15.30;;;13.75;;
10442;SDS011;5269;51.146;16.986;2022-07-22T04:57:14;17.00;;;13.50;;
10442;SDS011;5269;51.146;16.986;2022-07-22T04:59:41;16.13;;;14.32;;
10442;SDS011;5269;51.146;16.986;2022-07-22T05:02:08;16.00;;;14.38;;
10442;SDS011;5269;51.146;16.986;2022-07-22T05:04:37;17.88;;;13.93;;
10442;SDS011;5269;51.146;16.986;2022-07-22T05:07:04;14.90;;;13.40;;
10442;SDS011;5269;51.146;16.986;2022-07-22T05:09:31;16.30;;;13.45;;
10442;SDS011;5269;51.146;16.986;2022-07-22T05:11:58;15.02;;;13.32;;
10442;SDS011;5269;51.146;16.986;2022-07-22T05:14:25;16.55;;;12.90;;
10442;SDS011;5269;51.146;16.986;2022-07-22T05:16:52;14.93;;;13.32;;
10442;SDS011;5269;51.146;16.986;2022-07-22T05:19:19;18.67;;;13.20;;
10442;SDS011;5269;51.146;16.986;2022-07-22T05:21:47;14.63;;;13.13;;
10442;SDS011;5269;51.146;16.986;2022-07-22T05:24:14;18.05;;;13.13;;
10442;SDS011;5269;51.146;16.986;2022-07-22T05:26:41;13.32;;;12.02;;
10442;SDS011;5269;51.146;16.986;2022-07-22T05:29:08;16.15;;;12.90;;
10442;SDS011;5269;51.146;16.986;2022-07-22T05:31:35;14.65;;;12.30;;
10442;SDS011;5269;51.146;16.986;2022-07-22T05:34:02;16.27;;;13.55;;
10442;SDS011;5269;51.146;16.986;2022-07-22T05:36:29;14.38;;;12.70;;
10442;SDS011;5269;51.146;16.986;2022-07-22T05:38:59;14.32;;;12.88;;
10442;SDS011;5269;51.146;16.986;2022-07-22T05:41:26;14.43;;;12.98;;
10442;SDS011;5269;51.146;16.986;2022-07-22T05:43:53;16.98;;;11.63;;
10442;SDS011;5269;51.146;16.986;2022-07-22T05:46:21;13.50;;;12.10;;
10442;SDS011;5269;51.146;16.986;2022-07-22T05:48:49;15.27;;;12.10;;
10442;SDS011;5269;51.146;16.986;2022-07-22T05:51:16;12.88;;;11.57;;
10442;SDS011;5269;51.146;16.986;2022-07-22T05:53:43;13.57;;;12.18;;
10442;SDS011;5269;51.146;16.986;2022-07-22T05:56:12;12.57;;;11.48;;
10442;SDS011;5269;51.146;16.986;2022-07-22T05:58:39;13.57;;;12.18;;
10442;SDS011;5269;51.146;16.986;2022-07-22T06:01:09;13.27;;;11.88;;
10442;SDS011;5269;51.146;16.986;2022-07-22T06:03:36;13.43;;;12.02;;
10442;SDS011;5269;51.146;16.986;2022-07-22T06:06:03;14.57;;;11.20;;
10442;SDS011;5269;51.146;16.986;2022-07-22T06:08:33;15.70;;;11.77;;
10442;SDS011;5269;51.146;16.986;2022-07-22T06:11:01;12.25;;;10.75;;
10442;SDS011;5269;51.146;16.986;2022-07-22T06:13:29;12.55;;;11.25;;
10442;SDS011;5269;51.146;16.986;2022-07-22T06:15:56;12.73;;;11.25;;
10442;SDS011;5269;51.146;16.986;2022-07-22T06:18:24;13.23;;;11.40;;
10442;SDS011;5269;51.146;16.986;2022-07-22T06:20:51;15.30;;;11.55;;
10442;SDS011;5269;51.146;16.986;2022-07-22T06:23:18;14.25;;;10.95;;
10442;SDS011;5269;51.146;16.986;2022-07-22T06:25:45;12.45;;;11.02;;
10442;SDS011;5269;51.146;16.986;2022-07-22T06:28:12;14.90;;;11.60;;
10442;SDS011;5269;51.146;16.986;2022-07-22T06:30:40;13.05;;;11.68;;
10442;SDS011;5269;51.146;16.986;2022-07-22T06:33:07;14.80;;;12.05;;
10442;SDS011;5269;51.146;16.986;2022-07-22T06:35:34;12.75;;;11.25;;
10442;SDS011;5269;51.146;16.986;2022-07-22T06:38:04;12.45;;;11.13;;
10442;SDS011;5269;51.146;16.986;2022-07-22T06:40:31;13.43;;;11.65;;
10442;SDS011;5269;51.146;16.986;2022-07-22T06:42:58;16.25;;;12.90;;
10442;SDS011;5269;51.146;16.986;2022-07-22T06:45:25;15.15;;;11.38;;
10442;SDS011;5269;51.146;16.986;2022-07-22T06:47:54;12.82;;;11.35;;
10442;SDS011;5269;51.146;16.986;2022-07-22T06:50:25;14.57;;;12.32;;
10442;SDS011;5269;51.146;16.986;2022-07-22T06:52:52;14.93;;;12.43;;
10442;SDS011;5269;51.146;16.986;2022-07-22T06:55:31;18.15;;;12.18;;
10442;SDS011;5269;51.146;16.986;2022-07-22T06:57:58;15.32;;;12.25;;
10442;SDS011;5269;51.146;16.986;2022-07-22T07:00:25;13.63;;;11.70;;
10442;SDS011;5269;51.146;16.986;2022-07-22T07:02:53;12.77;;;11.32;;
10442;SDS011;5269;51.146;16.986;2022-07-22T07:05:23;14.82;;;11.98;;
10442;SDS011;5269;51.146;16.986;2022-07-22T07:07:52;13.07;;;11.88;;
10442;SDS011;5269;51.146;16.986;2022-07-22T07:10:19;15.52;;;11.50;;
10442;SDS011;5269;51.146;16.986;2022-07-22T07:12:46;15.82;;;10.90;;
10442;SDS011;5269;51.146;16.986;2022-07-22T07:15:13;12.52;;;11.43;;
10442;SDS011;5269;51.146;16.986;2022-07-22T07:17:40;15.05;;;11.30;;
10442;SDS011;5269;51.146;16.986;2022-07-22T07:20:09;13.25;;;11.82;;
10442;SDS011;5269;51.146;16.986;2022-07-22T07:22:37;13.52;;;11.27;;
10442;SDS011;5269;51.146;16.986;2022-07-22T07:25:04;16.77;;;11.25;;
10442;SDS011;5269;51.146;16.986;2022-07-22T07:27:32;14.00;;;11.55;;
10442;SDS011;5269;51.146;16.986;2022-07-22T07:30:00;14.38;;;11.23;;
10442;SDS011;5269;51.146;16.986;2022-07-22T07:32:27;13.63;;;12.23;;
10442;SDS011;5269;51.146;16.986;2022-07-22T07:34:54;12.80;;;11.55;;
10442;SDS011;5269;51.146;16.986;2022-07-22T07:37:23;14.55;;;11.55;;
10442;SDS011;5269;51.146;16.986;2022-07-22T07:39:49;12.57;;;11.25;;
10442;SDS011;5269;51.146;16.986;2022-07-22T07:42:16;18.25;;;11.88;;
10442;SDS011;5269;51.146;16.986;2022-07-22T07:44:43;13.27;;;11.73;;
10442;SDS011;5269;51.146;16.986;2022-07-22T07:47:10;12.93;;;11.82;;
10442;SDS011;5269;51.146;16.986;2022-07-22T07:49:42;12.93;;;10.48;;
10442;SDS011;5269;51.146;16.986;2022-07-22T07:52:09;14.55;;;11.95;;
10442;SDS011;5269;51.146;16.986;2022-07-22T07:54:39;14.82;;;12.48;;
10442;SDS011;5269;51.146;16.986;2022-07-22T07:57:06;15.57;;;11.57;;
10442;SDS011;5269;51.146;16.986;2022-07-22T07:59:33;14.38;;;11.50;;
10442;SDS011;5269;51.146;16.986;2022-07-22T08:02:00;18.67;;;11.57;;
10442;SDS011;5269;51.146;16.986;2022-07-22T08:04:28;14.02;;;12.55;;
10442;SDS011;5269;51.146;16.986;2022-07-22T08:06:55;12.30;;;11.20;;
10442;SDS011;5269;51.146;16.986;2022-07-22T08:09:22;14.57;;;11.65;;
10442;SDS011;5269;51.146;16.986;2022-07-22T08:11:51;14.15;;;11.75;;
10442;SDS011;5269;51.146;16.986;2022-07-22T08:14:18;12.48;;;11.07;;
10442;SDS011;5269;51.146;16.986;2022-07-22T08:16:45;13.18;;;11.95;;
10442;SDS011;5269;51.146;16.986;2022-07-22T08:19:12;12.50;;;11.23;;
10442;SDS011;5269;51.146;16.986;2022-07-22T08:21:39;13.23;;;11.93;;
10442;SDS011;5269;51.146;16.986;2022-07-22T08:24:07;16.42;;;10.90;;
10442;SDS011;5269;51.146;16.986;2022-07-22T08:26:35;13.00;;;11.63;;
10442;SDS011;5269;51.146;16.986;2022-07-22T08:29:03;13.07;;;11.65;;
10442;SDS011;5269;51.146;16.986;2022-07-22T08:31:32;12.38;;;11.27;;
10442;SDS011;5269;51.146;16.986;2022-07-22T08:34:00;13.55;;;11.63;;
10442;SDS011;5269;51.146;16.986;2022-07-22T08:36:27;18.20;;;12.02;;
10442;SDS011;5269;51.146;16.986;2022-07-22T08:38:54;15.15;;;11.85;;
10442;SDS011;5269;51.146;16.986;2022-07-22T08:41:22;12.82;;;11.40;;
10442;SDS011;5269;51.146;16.986;2022-07-22T08:43:50;14.05;;;11.32;;
10442;SDS011;5269;51.146;16.986;2022-07-22T08:46:19;13.82;;;11.05;;
10442;SDS011;5269;51.146;16.986;2022-07-22T08:48:46;11.80;;;10.65;;
10442;SDS011;5269;51.146;16.986;2022-07-22T08:51:13;11.95;;;10.63;;
10442;SDS011;5269;51.146;16.986;2022-07-22T08:53:40;12.55;;;9.93;;
10442;SDS011;5269;51.146;16.986;2022-07-22T08:56:07;12.13;;;10.45;;
10442;SDS011;5269;51.146;16.986;2022-07-22T08:58:34;11.60;;;10.25;;
10442;SDS011;5269;51.146;16.986;2022-07-22T09:01:04;10.57;;;9.60;;
10442;SDS011;5269;51.146;16.986;2022-07-22T09:03:35;10.63;;;9.57;;
10442;SDS011;5269;51.146;16.986;2022-07-22T09:06:10;12.55;;;10.32;;
10442;SDS011;5269;51.146;16.986;2022-07-22T09:08:49;9.73;;;8.80;;
10442;SDS011;5269;51.146;16.986;2022-07-22T09:11:17;10.23;;;9.15;;
10442;SDS011;5269;51.146;16.986;2022-07-22T09:13:46;10.32;;;8.57;;
10442;SDS011;5269;51.146;16.986;2022-07-22T09:16:13;10.80;;;8.57;;
10442;SDS011;5269;51.146;16.986;2022-07-22T09:18:45;9.65;;;8.73;;
10442;SDS011;5269;51.146;16.986;2022-07-22T09:21:14;9.88;;;7.65;;
10442;SDS011;5269;51.146;16.986;2022-07-22T09:23:41;8.73;;;7.93;;
10442;SDS011;5269;51.146;16.986;2022-07-22T09:26:09;11.00;;;8.02;;
10442;SDS011;5269;51.146;16.986;2022-07-22T09:28:56;9.55;;;8.60;;
10442;SDS011;5269;51.146;16.986;2022-07-22T09:31:24;11.40;;;9.32;;
10442;SDS011;5269;51.146;16.986;2022-07-22T09:33:53;9.52;;;8.73;;
10442;SDS011;5269;51.146;16.986;2022-07-22T09:36:20;9.85;;;8.85;;
10442;SDS011;5269;51.146;16.986;2022-07-22T09:38:47;9.38;;;8.48;;
10442;SDS011;5269;51.146;16.986;2022-07-22T09:41:15;10.82;;;7.85;;
10442;SDS011;5269;51.146;16.986;2022-07-22T09:43:43;9.10;;;7.50;;
10442;SDS011;5269;51.146;16.986;2022-07-22T09:46:10;11.25;;;7.50;;
10442;SDS011;5269;51.146;16.986;2022-07-22T09:48:38;11.27;;;8.45;;
10442;SDS011;5269;51.146;16.986;2022-07-22T09:51:07;9.18;;;8.30;;
10442;SDS011;5269;51.146;16.986;2022-07-22T09:53:34;9.13;;;8.23;;
10442;SDS011;5269;51.146;16.986;2022-07-22T09:56:02;9.20;;;8.15;;
10442;SDS011;5269;51.146;16.986;2022-07-22T09:58:30;9.50;;;8.60;;
10442;SDS011;5269;51.146;16.986;2022-07-22T10:00:58;14.93;;;8.73;;
10442;SDS011;5269;51.146;16.986;2022-07-22T10:03:29;9.75;;;8.85;;
10442;SDS011;5269;51.146;16.986;2022-07-22T10:05:57;10.20;;;8.68;;
10442;SDS011;5269;51.146;16.986;2022-07-22T10:08:27;9.90;;;9.00;;
10442;SDS011;5269;51.146;16.986;2022-07-22T10:10:58;13.80;;;8.80;;
10442;SDS011;5269;51.146;16.986;2022-07-22T10:13:26;9.85;;;8.88;;
10442;SDS011;5269;51.146;16.986;2022-07-22T10:15:54;9.32;;;8.52;;
10442;SDS011;5269;51.146;16.986;2022-07-22T10:18:22;10.00;;;9.07;;
10442;SDS011;5269;51.146;16.986;2022-07-22T10:21:00;9.90;;;9.05;;
10442;SDS011;5269;51.146;16.986;2022-07-22T10:23:29;11.55;;;8.73;;
10442;SDS011;5269;51.146;16.986;2022-07-22T10:25:56;9.20;;;8.40;;
10442;SDS011;5269;51.146;16.986;2022-07-22T10:28:25;10.18;;;7.82;;
10442;SDS011;5269;51.146;16.986;2022-07-22T10:30:53;9.18;;;8.32;;
10442;SDS011;5269;51.146;16.986;2022-07-22T10:33:43;9.75;;;8.25;;
10442;SDS011;5269;51.146;16.986;2022-07-22T10:36:11;9.60;;;8.73;;
10442;SDS011;5269;51.146;16.986;2022-07-22T10:38:40;8.93;;;8.02;;
10442;SDS011;5269;51.146;16.986;2022-07-22T10:41:33;8.95;;;7.90;;
10442;SDS011;5269;51.146;16.986;2022-07-22T10:44:01;7.85;;;7.15;;
10442;SDS011;5269;51.146;16.986;2022-07-22T10:49:18;8.05;;;7.25;;
10442;SDS011;5269;51.146;16.986;2022-07-22T10:52:08;8.05;;;7.22;;
10442;SDS011;5269;51.146;16.986;2022-07-22T10:57:38;7.78;;;6.60;;
10442;SDS011;5269;51.146;16.986;2022-07-22T11:00:05;6.70;;;6.10;;
10442;SDS011;5269;51.146;16.986;2022-07-22T11:02:33;7.38;;;6.78;;
10442;SDS011;5269;51.146;16.986;2022-07-22T11:05:03;7.63;;;6.97;;
10442;SDS011;5269;51.146;16.986;2022-07-22T11:07:31;7.68;;;7.03;;
10442;SDS011;5269;51.146;16.986;2022-07-22T11:10:07;8.30;;;7.70;;
10442;SDS011;5269;51.146;16.986;2022-07-22T11:12:36;8.82;;;7.20;;
10442;SDS011;5269;51.146;16.986;2022-07-22T11:15:05;7.10;;;6.40;;
10442;SDS011;5269;51.146;16.986;2022-07-22T11:17:35;7.13;;;6.50;;
10442;SDS011;5269;51.146;16.986;2022-07-22T11:20:02;6.60;;;6.05;;
10442;SDS011;5269;51.146;16.986;2022-07-22T11:22:31;7.38;;;6.18;;
10442;SDS011;5269;51.146;16.986;2022-07-22T11:24:59;6.78;;;6.20;;
10442;SDS011;5269;51.146;16.986;2022-07-22T11:27:26;7.13;;;6.45;;
10442;SDS011;5269;51.146;16.986;2022-07-22T11:29:55;7.25;;;6.65;;
10442;SDS011;5269;51.146;16.986;2022-07-22T11:32:23;8.00;;;6.35;;
10442;SDS011;5269;51.146;16.986;2022-07-22T11:34:52;6.78;;;6.20;;
10442;SDS011;5269;51.146;16.986;2022-07-22T11:37:20;6.55;;;5.93;;
10442;SDS011;5269;51.146;16.986;2022-07-22T11:39:49;6.72;;;5.72;;
10442;SDS011;5269;51.146;16.986;2022-07-22T11:42:16;6.80;;;6.20;;
10442;SDS011;5269;51.146;16.986;2022-07-22T11:44:44;7.03;;;6.18;;
10442;SDS011;5269;51.146;16.986;2022-07-22T11:47:12;7.10;;;6.05;;
10442;SDS011;5269;51.146;16.986;2022-07-22T11:49:39;9.68;;;5.95;;
10442;SDS011;5269;51.146;16.986;2022-07-22T11:52:07;6.25;;;5.65;;
10442;SDS011;5269;51.146;16.986;2022-07-22T11:54:37;7.32;;;5.80;;
10442;SDS011;5269;51.146;16.986;2022-07-22T11:57:05;7.22;;;5.53;;
10442;SDS011;5269;51.146;16.986;2022-07-22T11:59:32;6.70;;;6.25;;
10442;SDS011;5269;51.146;16.986;2022-07-22T12:02:01;6.25;;;5.65;;
10442;SDS011;5269;51.146;16.986;2022-07-22T12:04:30;9.18;;;6.70;;
10442;SDS011;5269;51.146;16.986;2022-07-22T12:06:58;8.27;;;6.25;;
10442;SDS011;5269;51.146;16.986;2022-07-22T12:09:28;7.28;;;6.55;;
10442;SDS011;5269;51.146;16.986;2022-07-22T12:11:57;6.38;;;5.70;;
10442;SDS011;5269;51.146;16.986;2022-07-22T12:14:24;6.32;;;5.68;;
10442;SDS011;5269;51.146;16.986;2022-07-22T12:16:54;7.57;;;6.25;;
10442;SDS011;5269;51.146;16.986;2022-07-22T12:19:23;5.78;;;5.15;;
10442;SDS011;5269;51.146;16.986;2022-07-22T12:21:56;5.63;;;5.05;;
10442;SDS011;5269;51.146;16.986;2022-07-22T12:24:25;6.45;;;5.85;;
10442;SDS011;5269;51.146;16.986;2022-07-22T12:26:54;9.70;;;5.40;;
10442;SDS011;5269;51.146;16.986;2022-07-22T12:29:23;6.05;;;5.55;;
10442;SDS011;5269;51.146;16.986;2022-07-22T12:31:52;6.40;;;5.90;;
10442;SDS011;5269;51.146;16.986;2022-07-22T12:34:34;6.28;;;5.45;;
10442;SDS011;5269;51.146;16.986;2022-07-22T12:37:13;6.72;;;6.05;;
10442;SDS011;5269;51.146;16.986;2022-07-22T12:39:58;6.80;;;6.07;;
10442;SDS011;5269;51.146;16.986;2022-07-22T12:42:29;6.63;;;6.00;;
10442;SDS011;5269;51.146;16.986;2022-07-22T12:45:01;6.57;;;5.97;;
10442;SDS011;5269;51.146;16.986;2022-07-22T12:50:23;6.50;;;5.90;;
10442;SDS011;5269;51.146;16.986;2022-07-22T12:52:54;6.03;;;5.63;;
10442;SDS011;5269;51.146;16.986;2022-07-22T12:55:22;5.93;;;5.43;;
10442;SDS011;5269;51.146;16.986;2022-07-22T12:57:50;6.20;;;5.60;;
10442;SDS011;5269;51.146;16.986;2022-07-22T13:00:17;6.35;;;5.85;;
10442;SDS011;5269;51.146;16.986;2022-07-22T13:02:46;8.00;;;5.60;;
10442;SDS011;5269;51.146;16.986;2022-07-22T13:05:13;7.28;;;5.63;;
10442;SDS011;5269;51.146;16.986;2022-07-22T13:07:41;6.07;;;5.50;;
10442;SDS011;5269;51.146;16.986;2022-07-22T13:10:10;6.55;;;5.95;;
10442;SDS011;5269;51.146;16.986;2022-07-22T13:12:38;6.53;;;6.03;;
10442;SDS011;5269;51.146;16.986;2022-07-22T13:15:05;6.82;;;6.03;;
10442;SDS011;5269;51.146;16.986;2022-07-22T13:17:33;6.82;;;6.15;;
10442;SDS011;5269;51.146;16.986;2022-07-22T13:20:00;6.93;;;6.43;;
10442;SDS011;5269;51.146;16.986;2022-07-22T13:22:28;8.38;;;6.20;;
10442;SDS011;5269;51.146;16.986;2022-07-22T13:24:55;9.55;;;6.43;;
10442;SDS011;5269;51.146;16.986;2022-07-22T13:27:23;6.50;;;5.85;;
10442;SDS011;5269;51.146;16.986;2022-07-22T13:29:50;7.40;;;6.25;;
10442;SDS011;5269;51.146;16.986;2022-07-22T13:32:18;6.35;;;5.85;;
10442;SDS011;5269;51.146;16.986;2022-07-22T13:34:45;6.30;;;5.90;;
10442;SDS011;5269;51.146;16.986;2022-07-22T13:37:12;6.22;;;5.72;;
10442;SDS011;5269;51.146;16.986;2022-07-22T13:39:38;6.35;;;5.78;;
10442;SDS011;5269;51.146;16.986;2022-07-22T13:42:07;6.20;;;5.70;;
10442;SDS011;5269;51.146;16.986;2022-07-22T13:44:36;6.30;;;5.72;;
10442;SDS011;5269;51.146;16.986;2022-07-22T13:47:02;6.82;;;5.80;;
10442;SDS011;5269;51.146;16.986;2022-07-22T13:49:30;6.50;;;5.90;;
10442;SDS011;5269;51.146;16.986;2022-07-22T13:51:57;6.25;;;5.70;;
10442;SDS011;5269;51.146;16.986;2022-07-22T13:54:23;6.25;;;5.65;;
10442;SDS011;5269;51.146;16.986;2022-07-22T13:56:50;6.35;;;5.85;;
10442;SDS011;5269;51.146;16.986;2022-07-22T13:59:17;6.43;;;5.82;;
10442;SDS011;5269;51.146;16.986;2022-07-22T14:01:46;6.65;;;5.93;;
10442;SDS011;5269;51.146;16.986;2022-07-22T14:04:13;9.68;;;6.15;;
10442;SDS011;5269;51.146;16.986;2022-07-22T14:06:39;7.25;;;5.75;;
10442;SDS011;5269;51.146;16.986;2022-07-22T14:09:07;6.30;;;5.70;;
10442;SDS011;5269;51.146;16.986;2022-07-22T14:11:34;6.45;;;5.85;;
10442;SDS011;5269;51.146;16.986;2022-07-22T14:14:00;7.57;;;5.55;;
10442;SDS011;5269;51.146;16.986;2022-07-22T14:16:30;6.53;;;5.80;;
10442;SDS011;5269;51.146;16.986;2022-07-22T14:19:04;7.85;;;5.72;;
10442;SDS011;5269;51.146;16.986;2022-07-22T14:21:33;6.55;;;5.55;;
10442;SDS011;5269;51.146;16.986;2022-07-22T14:24:02;5.70;;;5.20;;
10442;SDS011;5269;51.146;16.986;2022-07-22T14:26:31;7.38;;;5.72;;
10442;SDS011;5269;51.146;16.986;2022-07-22T14:28:58;6.75;;;6.10;;
10442;SDS011;5269;51.146;16.986;2022-07-22T14:31:25;8.20;;;5.50;;
10442;SDS011;5269;51.146;16.986;2022-07-22T14:33:53;6.22;;;5.72;;
10442;SDS011;5269;51.146;16.986;2022-07-22T14:36:22;6.25;;;5.68;;
10442;SDS011;5269;51.146;16.986;2022-07-22T14:38:50;6.45;;;5.72;;
10442;SDS011;5269;51.146;16.986;2022-07-22T14:41:18;5.88;;;5.38;;
10442;SDS011;5269;51.146;16.986;2022-07-22T14:43:46;7.70;;;5.47;;
10442;SDS011;5269;51.146;16.986;2022-07-22T14:46:13;5.97;;;5.55;;
10442;SDS011;5269;51.146;16.986;2022-07-22T14:48:40;6.10;;;5.50;;
10442;SDS011;5269;51.146;16.986;2022-07-22T14:51:07;5.93;;;5.38;;